sensor_id;sensor_type;location;lat;lon;timestamp;P1;durP1;ratioP1;P2;durP2;ratioP2
56670;SDS011;42545;50.054;8.306;2023-05-07T00:02:00;0.50;;;0.50;;
56670;SDS011;42545;50.054;8.306;2023-05-07T00:04:26;0.57;;;0.57;;
56670;SDS011;42545;50.054;8.306;2023-05-07T00:06:54;0.47;;;0.47;;
56670;SDS011;42545;50.054;8.306;2023-05-07T00:09:20;0.45;;;0.45;;
56670;SDS011;42545;50.054;8.306;2023-05-07T00:11:47;0.50;;;0.50;;
56670;SDS011;42545;50.054;8.306;2023-05-07T00:14:14;0.30;;;0.30;;
56670;SDS011;42545;50.054;8.306;2023-05-07T00:16:40;0.38;;;0.38;;
56670;SDS011;42545;50.054;8.306;2023-05-07T00:19:08;0.40;;;0.40;;
56670;SDS011;42545;50.054;8.306;2023-05-07T00:21:35;0.40;;;0.40;;
56670;SDS011;42545;50.054;8.306;2023-05-07T00:24:02;0.30;;;0.30;;
56670;SDS011;42545;50.054;8.306;2023-05-07T00:26:30;0.30;;;0.30;;
56670;SDS011;42545;50.054;8.306;2023-05-07T00:28:56;0.40;;;0.40;;
56670;SDS011;42545;50.054;8.306;2023-05-07T00:31:23;0.70;;;0.70;;
56670;SDS011;42545;50.054;8.306;2023-05-07T00:33:50;0.50;;;0.50;;
56670;SDS011;42545;50.054;8.306;2023-05-07T00:36:18;0.80;;;0.50;;
56670;SDS011;42545;50.054;8.306;2023-05-07T00:38:45;0.50;;;0.50;;
56670;SDS011;42545;50.054;8.306;2023-05-07T00:41:11;0.63;;;0.52;;
56670;SDS011;42545;50.054;8.306;2023-05-07T00:43:38;0.50;;;0.50;;
56670;SDS011;42545;50.054;8.306;2023-05-07T00:46:04;0.50;;;0.50;;
56670;SDS011;42545;50.054;8.306;2023-05-07T00:48:31;0.50;;;0.50;;
56670;SDS011;42545;50.054;8.306;2023-05-07T00:50:58;0.50;;;0.50;;
56670;SDS011;42545;50.054;8.306;2023-05-07T00:53:26;0.43;;;0.43;;
56670;SDS011;42545;50.054;8.306;2023-05-07T00:55:53;0.50;;;0.50;;
56670;SDS011;42545;50.054;8.306;2023-05-07T00:58:21;0.40;;;0.40;;
56670;SDS011;42545;50.054;8.306;2023-05-07T01:00:48;0.85;;;0.73;;
56670;SDS011;42545;50.054;8.306;2023-05-07T01:03:15;1.27;;;1.00;;
56670;SDS011;42545;50.054;8.306;2023-05-07T01:05:41;2.75;;;1.88;;
56670;SDS011;42545;50.054;8.306;2023-05-07T01:08:11;2.38;;;1.73;;
56670;SDS011;42545;50.054;8.306;2023-05-07T01:10:39;1.30;;;1.10;;
56670;SDS011;42545;50.054;8.306;2023-05-07T01:13:08;1.75;;;1.55;;
56670;SDS011;42545;50.054;8.306;2023-05-07T01:15:35;1.88;;;1.35;;
56670;SDS011;42545;50.054;8.306;2023-05-07T01:18:02;2.00;;;1.30;;
56670;SDS011;42545;50.054;8.306;2023-05-07T01:20:29;2.25;;;1.45;;
56670;SDS011;42545;50.054;8.306;2023-05-07T01:22:58;1.20;;;1.10;;
56670;SDS011;42545;50.054;8.306;2023-05-07T01:25:26;1.70;;;1.20;;
56670;SDS011;42545;50.054;8.306;2023-05-07T01:27:53;1.15;;;1.05;;
56670;SDS011;42545;50.054;8.306;2023-05-07T01:30:20;1.58;;;1.08;;
56670;SDS011;42545;50.054;8.306;2023-05-07T01:32:52;0.80;;;0.80;;
56670;SDS011;42545;50.054;8.306;2023-05-07T01:35:22;1.05;;;0.88;;
56670;SDS011;42545;50.054;8.306;2023-05-07T01:37:53;1.17;;;0.95;;
56670;SDS011;42545;50.054;8.306;2023-05-07T01:40:22;0.70;;;0.70;;
56670;SDS011;42545;50.054;8.306;2023-05-07T01:42:48;0.80;;;0.60;;
56670;SDS011;42545;50.054;8.306;2023-05-07T01:45:16;0.63;;;0.63;;
56670;SDS011;42545;50.054;8.306;2023-05-07T01:47:42;0.68;;;0.68;;
56670;SDS011;42545;50.054;8.306;2023-05-07T01:50:09;0.68;;;0.68;;
56670;SDS011;42545;50.054;8.306;2023-05-07T01:52:37;0.50;;;0.50;;
56670;SDS011;42545;50.054;8.306;2023-05-07T01:55:05;0.50;;;0.50;;
56670;SDS011;42545;50.054;8.306;2023-05-07T01:57:34;0.60;;;0.60;;
56670;SDS011;42545;50.054;8.306;2023-05-07T02:00:00;0.50;;;0.50;;
56670;SDS011;42545;50.054;8.306;2023-05-07T02:02:27;0.50;;;0.50;;
56670;SDS011;42545;50.054;8.306;2023-05-07T02:04:54;0.73;;;0.60;;
56670;SDS011;42545;50.054;8.306;2023-05-07T02:07:20;0.50;;;0.50;;
56670;SDS011;42545;50.054;8.306;2023-05-07T02:09:47;0.50;;;0.50;;
56670;SDS011;42545;50.054;8.306;2023-05-07T02:12:13;0.35;;;0.35;;
56670;SDS011;42545;50.054;8.306;2023-05-07T02:14:41;0.63;;;0.50;;
56670;SDS011;42545;50.054;8.306;2023-05-07T02:17:08;0.30;;;0.30;;
56670;SDS011;42545;50.054;8.306;2023-05-07T02:19:35;0.40;;;0.40;;
56670;SDS011;42545;50.054;8.306;2023-05-07T02:22:01;0.50;;;0.50;;
56670;SDS011;42545;50.054;8.306;2023-05-07T02:24:28;0.60;;;0.60;;
56670;SDS011;42545;50.054;8.306;2023-05-07T02:26:55;0.95;;;0.50;;
56670;SDS011;42545;50.054;8.306;2023-05-07T02:29:21;0.40;;;0.40;;
56670;SDS011;42545;50.054;8.306;2023-05-07T02:31:49;0.50;;;0.50;;
56670;SDS011;42545;50.054;8.306;2023-05-07T02:34:17;0.50;;;0.50;;
56670;SDS011;42545;50.054;8.306;2023-05-07T02:36:44;0.40;;;0.40;;
56670;SDS011;42545;50.054;8.306;2023-05-07T02:39:11;0.50;;;0.45;;
56670;SDS011;42545;50.054;8.306;2023-05-07T02:41:41;0.40;;;0.40;;
56670;SDS011;42545;50.054;8.306;2023-05-07T02:44:08;0.40;;;0.40;;
56670;SDS011;42545;50.054;8.306;2023-05-07T02:46:34;0.40;;;0.40;;
56670;SDS011;42545;50.054;8.306;2023-05-07T02:49:02;0.50;;;0.50;;
56670;SDS011;42545;50.054;8.306;2023-05-07T02:51:29;0.40;;;0.40;;
56670;SDS011;42545;50.054;8.306;2023-05-07T02:53:57;0.40;;;0.40;;
56670;SDS011;42545;50.054;8.306;2023-05-07T02:56:25;0.40;;;0.40;;
56670;SDS011;42545;50.054;8.306;2023-05-07T02:58:51;0.32;;;0.32;;
56670;SDS011;42545;50.054;8.306;2023-05-07T03:01:18;0.30;;;0.30;;
56670;SDS011;42545;50.054;8.306;2023-05-07T03:03:45;0.40;;;0.40;;
56670;SDS011;42545;50.054;8.306;2023-05-07T03:06:14;0.30;;;0.30;;
56670;SDS011;42545;50.054;8.306;2023-05-07T03:08:40;0.40;;;0.40;;
56670;SDS011;42545;50.054;8.306;2023-05-07T03:11:07;0.30;;;0.30;;
56670;SDS011;42545;50.054;8.306;2023-05-07T03:13:34;0.30;;;0.30;;
56670;SDS011;42545;50.054;8.306;2023-05-07T03:16:00;0.38;;;0.38;;
56670;SDS011;42545;50.054;8.306;2023-05-07T03:18:27;0.40;;;0.40;;
56670;SDS011;42545;50.054;8.306;2023-05-07T03:20:53;0.35;;;0.35;;
56670;SDS011;42545;50.054;8.306;2023-05-07T03:23:21;0.35;;;0.35;;
56670;SDS011;42545;50.054;8.306;2023-05-07T03:25:48;0.30;;;0.30;;
56670;SDS011;42545;50.054;8.306;2023-05-07T03:28:14;0.30;;;0.30;;
56670;SDS011;42545;50.054;8.306;2023-05-07T03:30:41;0.30;;;0.30;;
56670;SDS011;42545;50.054;8.306;2023-05-07T03:33:07;0.40;;;0.40;;
56670;SDS011;42545;50.054;8.306;2023-05-07T03:35:34;0.30;;;0.30;;
56670;SDS011;42545;50.054;8.306;2023-05-07T03:38:01;0.60;;;0.60;;
56670;SDS011;42545;50.054;8.306;2023-05-07T03:40:29;0.40;;;0.40;;
56670;SDS011;42545;50.054;8.306;2023-05-07T03:42:55;0.40;;;0.40;;
56670;SDS011;42545;50.054;8.306;2023-05-07T03:45:22;0.30;;;0.30;;
56670;SDS011;42545;50.054;8.306;2023-05-07T03:47:49;1.15;;;0.50;;
56670;SDS011;42545;50.054;8.306;2023-05-07T03:50:15;0.80;;;0.80;;
56670;SDS011;42545;50.054;8.306;2023-05-07T03:52:42;0.65;;;0.60;;
56670;SDS011;42545;50.054;8.306;2023-05-07T03:55:09;0.65;;;0.50;;
56670;SDS011;42545;50.054;8.306;2023-05-07T03:57:37;0.73;;;0.73;;
56670;SDS011;42545;50.054;8.306;2023-05-07T04:00:04;0.65;;;0.60;;
56670;SDS011;42545;50.054;8.306;2023-05-07T04:02:32;0.60;;;0.60;;
56670;SDS011;42545;50.054;8.306;2023-05-07T04:04:59;0.60;;;0.52;;
56670;SDS011;42545;50.054;8.306;2023-05-07T04:07:26;0.60;;;0.60;;
56670;SDS011;42545;50.054;8.306;2023-05-07T04:09:53;0.47;;;0.47;;
56670;SDS011;42545;50.054;8.306;2023-05-07T04:12:19;0.70;;;0.70;;
56670;SDS011;42545;50.054;8.306;2023-05-07T04:14:47;0.50;;;0.50;;
56670;SDS011;42545;50.054;8.306;2023-05-07T04:17:14;0.40;;;0.40;;
56670;SDS011;42545;50.054;8.306;2023-05-07T04:19:40;0.50;;;0.50;;
56670;SDS011;42545;50.054;8.306;2023-05-07T04:22:10;0.40;;;0.40;;
56670;SDS011;42545;50.054;8.306;2023-05-07T04:24:37;0.52;;;0.52;;
56670;SDS011;42545;50.054;8.306;2023-05-07T04:27:04;0.70;;;0.70;;
56670;SDS011;42545;50.054;8.306;2023-05-07T04:29:31;0.80;;;0.80;;
56670;SDS011;42545;50.054;8.306;2023-05-07T04:31:59;0.70;;;0.70;;
56670;SDS011;42545;50.054;8.306;2023-05-07T04:34:26;0.80;;;0.80;;
56670;SDS011;42545;50.054;8.306;2023-05-07T04:36:53;0.80;;;0.80;;
56670;SDS011;42545;50.054;8.306;2023-05-07T04:39:19;0.70;;;0.70;;
56670;SDS011;42545;50.054;8.306;2023-05-07T04:41:46;0.70;;;0.70;;
56670;SDS011;42545;50.054;8.306;2023-05-07T04:44:13;0.70;;;0.70;;
56670;SDS011;42545;50.054;8.306;2023-05-07T04:46:40;1.02;;;0.82;;
56670;SDS011;42545;50.054;8.306;2023-05-07T04:49:08;0.70;;;0.70;;
56670;SDS011;42545;50.054;8.306;2023-05-07T04:51:35;0.85;;;0.80;;
56670;SDS011;42545;50.054;8.306;2023-05-07T04:54:01;0.70;;;0.70;;
56670;SDS011;42545;50.054;8.306;2023-05-07T04:56:28;1.02;;;0.80;;
56670;SDS011;42545;50.054;8.306;2023-05-07T04:58:55;1.13;;;1.00;;
56670;SDS011;42545;50.054;8.306;2023-05-07T05:01:23;0.98;;;0.88;;
56670;SDS011;42545;50.054;8.306;2023-05-07T05:03:50;0.70;;;0.70;;
56670;SDS011;42545;50.054;8.306;2023-05-07T05:06:20;1.17;;;1.08;;
56670;SDS011;42545;50.054;8.306;2023-05-07T05:08:47;1.05;;;0.95;;
56670;SDS011;42545;50.054;8.306;2023-05-07T05:11:13;1.02;;;0.93;;
56670;SDS011;42545;50.054;8.306;2023-05-07T05:13:40;1.10;;;1.00;;
56670;SDS011;42545;50.054;8.306;2023-05-07T05:16:07;1.33;;;1.00;;
56670;SDS011;42545;50.054;8.306;2023-05-07T05:18:33;1.08;;;1.00;;
56670;SDS011;42545;50.054;8.306;2023-05-07T05:21:00;1.17;;;1.05;;
56670;SDS011;42545;50.054;8.306;2023-05-07T05:23:28;1.30;;;1.00;;
56670;SDS011;42545;50.054;8.306;2023-05-07T05:25:55;1.42;;;1.10;;
56670;SDS011;42545;50.054;8.306;2023-05-07T05:28:23;1.17;;;1.08;;
56670;SDS011;42545;50.054;8.306;2023-05-07T05:30:49;1.02;;;1.00;;
56670;SDS011;42545;50.054;8.306;2023-05-07T05:33:16;1.17;;;0.90;;
56670;SDS011;42545;50.054;8.306;2023-05-07T05:35:42;1.20;;;1.08;;
56670;SDS011;42545;50.054;8.306;2023-05-07T05:38:09;0.90;;;0.90;;
56670;SDS011;42545;50.054;8.306;2023-05-07T05:40:37;1.45;;;1.10;;
56670;SDS011;42545;50.054;8.306;2023-05-07T05:43:03;1.70;;;1.30;;
56670;SDS011;42545;50.054;8.306;2023-05-07T05:45:30;1.05;;;0.95;;
56670;SDS011;42545;50.054;8.306;2023-05-07T05:47:56;3.30;;;1.38;;
56670;SDS011;42545;50.054;8.306;2023-05-07T05:50:23;1.25;;;1.10;;
56670;SDS011;42545;50.054;8.306;2023-05-07T05:52:50;1.40;;;1.30;;
56670;SDS011;42545;50.054;8.306;2023-05-07T05:55:16;1.70;;;1.25;;
56670;SDS011;42545;50.054;8.306;2023-05-07T05:57:44;2.30;;;1.40;;
56670;SDS011;42545;50.054;8.306;2023-05-07T06:00:11;1.73;;;1.50;;
56670;SDS011;42545;50.054;8.306;2023-05-07T06:02:38;1.38;;;1.25;;
56670;SDS011;42545;50.054;8.306;2023-05-07T06:05:05;1.50;;;1.30;;
56670;SDS011;42545;50.054;8.306;2023-05-07T06:07:32;2.85;;;1.40;;
56670;SDS011;42545;50.054;8.306;2023-05-07T06:09:59;1.73;;;1.50;;
56670;SDS011;42545;50.054;8.306;2023-05-07T06:12:26;1.80;;;1.40;;
56670;SDS011;42545;50.054;8.306;2023-05-07T06:14:54;1.30;;;1.20;;
56670;SDS011;42545;50.054;8.306;2023-05-07T06:17:21;2.95;;;1.45;;
56670;SDS011;42545;50.054;8.306;2023-05-07T06:19:47;1.75;;;1.33;;
56670;SDS011;42545;50.054;8.306;2023-05-07T06:22:14;1.90;;;1.70;;
56670;SDS011;42545;50.054;8.306;2023-05-07T06:24:41;1.33;;;1.23;;
56670;SDS011;42545;50.054;8.306;2023-05-07T06:27:07;1.77;;;1.55;;
56670;SDS011;42545;50.054;8.306;2023-05-07T06:29:34;2.30;;;1.60;;
56670;SDS011;42545;50.054;8.306;2023-05-07T06:32:08;3.17;;;1.40;;
56670;SDS011;42545;50.054;8.306;2023-05-07T06:34:35;2.22;;;1.65;;
56670;SDS011;42545;50.054;8.306;2023-05-07T06:37:01;2.55;;;1.70;;
56670;SDS011;42545;50.054;8.306;2023-05-07T06:39:28;1.67;;;1.55;;
56670;SDS011;42545;50.054;8.306;2023-05-07T06:41:55;2.00;;;1.65;;
56670;SDS011;42545;50.054;8.306;2023-05-07T06:44:21;1.98;;;1.58;;
56670;SDS011;42545;50.054;8.306;2023-05-07T06:46:48;2.92;;;2.03;;
56670;SDS011;42545;50.054;8.306;2023-05-07T06:49:16;2.58;;;1.60;;
56670;SDS011;42545;50.054;8.306;2023-05-07T06:51:44;2.33;;;2.13;;
56670;SDS011;42545;50.054;8.306;2023-05-07T06:54:11;2.20;;;1.90;;
56670;SDS011;42545;50.054;8.306;2023-05-07T06:56:38;2.22;;;1.67;;
56670;SDS011;42545;50.054;8.306;2023-05-07T06:59:04;1.85;;;1.67;;
56670;SDS011;42545;50.054;8.306;2023-05-07T07:01:31;1.63;;;1.50;;
56670;SDS011;42545;50.054;8.306;2023-05-07T07:03:57;1.88;;;1.70;;
56670;SDS011;42545;50.054;8.306;2023-05-07T07:06:25;4.03;;;2.45;;
56670;SDS011;42545;50.054;8.306;2023-05-07T07:08:52;2.20;;;1.92;;
56670;SDS011;42545;50.054;8.306;2023-05-07T07:11:18;2.17;;;1.85;;
56670;SDS011;42545;50.054;8.306;2023-05-07T07:13:45;2.40;;;1.80;;
56670;SDS011;42545;50.054;8.306;2023-05-07T07:16:12;1.95;;;1.77;;
56670;SDS011;42545;50.054;8.306;2023-05-07T07:18:39;2.30;;;2.00;;
56670;SDS011;42545;50.054;8.306;2023-05-07T07:21:05;1.80;;;1.60;;
56670;SDS011;42545;50.054;8.306;2023-05-07T07:23:33;1.90;;;1.60;;
56670;SDS011;42545;50.054;8.306;2023-05-07T07:26:00;2.00;;;1.70;;
56670;SDS011;42545;50.054;8.306;2023-05-07T07:28:26;1.60;;;1.42;;
56670;SDS011;42545;50.054;8.306;2023-05-07T07:30:53;1.63;;;1.38;;
56670;SDS011;42545;50.054;8.306;2023-05-07T07:33:19;2.28;;;1.70;;
56670;SDS011;42545;50.054;8.306;2023-05-07T07:35:46;1.58;;;1.48;;
56670;SDS011;42545;50.054;8.306;2023-05-07T07:38:13;1.95;;;1.77;;
56670;SDS011;42545;50.054;8.306;2023-05-07T07:40:41;2.13;;;1.73;;
56670;SDS011;42545;50.054;8.306;2023-05-07T07:43:08;1.75;;;1.65;;
56670;SDS011;42545;50.054;8.306;2023-05-07T07:45:36;1.70;;;1.60;;
56670;SDS011;42545;50.054;8.306;2023-05-07T07:48:02;2.35;;;1.52;;
56670;SDS011;42545;50.054;8.306;2023-05-07T07:50:29;1.98;;;1.60;;
56670;SDS011;42545;50.054;8.306;2023-05-07T07:52:56;2.88;;;1.80;;
56670;SDS011;42545;50.054;8.306;2023-05-07T07:55:30;2.20;;;1.88;;
56670;SDS011;42545;50.054;8.306;2023-05-07T07:57:58;1.70;;;1.60;;
56670;SDS011;42545;50.054;8.306;2023-05-07T08:00:25;2.47;;;2.10;;
56670;SDS011;42545;50.054;8.306;2023-05-07T08:02:51;1.65;;;1.40;;
56670;SDS011;42545;50.054;8.306;2023-05-07T08:05:18;2.50;;;2.13;;
56670;SDS011;42545;50.054;8.306;2023-05-07T08:07:45;3.17;;;2.30;;
56670;SDS011;42545;50.054;8.306;2023-05-07T08:10:16;4.05;;;2.10;;
56670;SDS011;42545;50.054;8.306;2023-05-07T08:12:46;5.55;;;2.10;;
56670;SDS011;42545;50.054;8.306;2023-05-07T08:15:14;2.03;;;1.70;;
56670;SDS011;42545;50.054;8.306;2023-05-07T08:17:41;1.90;;;1.80;;
56670;SDS011;42545;50.054;8.306;2023-05-07T08:20:08;2.17;;;1.80;;
56670;SDS011;42545;50.054;8.306;2023-05-07T08:22:37;2.77;;;2.10;;
56670;SDS011;42545;50.054;8.306;2023-05-07T08:25:03;2.45;;;2.03;;
56670;SDS011;42545;50.054;8.306;2023-05-07T08:27:30;1.92;;;1.80;;
56670;SDS011;42545;50.054;8.306;2023-05-07T08:29:57;2.17;;;1.60;;
56670;SDS011;42545;50.054;8.306;2023-05-07T08:32:25;2.17;;;1.90;;
56670;SDS011;42545;50.054;8.306;2023-05-07T08:34:52;2.08;;;1.80;;
56670;SDS011;42545;50.054;8.306;2023-05-07T08:37:19;2.55;;;1.90;;
56670;SDS011;42545;50.054;8.306;2023-05-07T08:39:46;2.15;;;1.83;;
56670;SDS011;42545;50.054;8.306;2023-05-07T08:42:13;2.53;;;2.17;;
56670;SDS011;42545;50.054;8.306;2023-05-07T08:44:44;4.20;;;2.40;;
56670;SDS011;42545;50.054;8.306;2023-05-07T08:47:12;2.40;;;2.08;;
56670;SDS011;42545;50.054;8.306;2023-05-07T08:49:40;2.25;;;1.90;;
56670;SDS011;42545;50.054;8.306;2023-05-07T08:52:07;2.38;;;2.00;;
56670;SDS011;42545;50.054;8.306;2023-05-07T08:54:34;3.15;;;2.58;;
56670;SDS011;42545;50.054;8.306;2023-05-07T08:57:03;1.88;;;1.75;;
56670;SDS011;42545;50.054;8.306;2023-05-07T08:59:30;2.42;;;2.10;;
56670;SDS011;42545;50.054;8.306;2023-05-07T09:01:56;3.60;;;2.40;;
56670;SDS011;42545;50.054;8.306;2023-05-07T09:04:23;2.90;;;2.60;;
56670;SDS011;42545;50.054;8.306;2023-05-07T09:06:51;2.67;;;2.17;;
56670;SDS011;42545;50.054;8.306;2023-05-07T09:09:18;2.50;;;2.20;;
56670;SDS011;42545;50.054;8.306;2023-05-07T09:11:45;3.17;;;2.33;;
56670;SDS011;42545;50.054;8.306;2023-05-07T09:14:11;3.33;;;2.30;;
56670;SDS011;42545;50.054;8.306;2023-05-07T09:16:40;2.92;;;2.60;;
56670;SDS011;42545;50.054;8.306;2023-05-07T09:19:10;2.53;;;2.33;;
56670;SDS011;42545;50.054;8.306;2023-05-07T09:21:37;3.38;;;2.15;;
56670;SDS011;42545;50.054;8.306;2023-05-07T09:24:07;2.47;;;2.10;;
56670;SDS011;42545;50.054;8.306;2023-05-07T09:26:33;2.00;;;1.80;;
56670;SDS011;42545;50.054;8.306;2023-05-07T09:29:01;2.90;;;2.20;;
56670;SDS011;42545;50.054;8.306;2023-05-07T09:31:28;2.38;;;2.17;;
56670;SDS011;42545;50.054;8.306;2023-05-07T09:33:56;2.30;;;1.88;;
56670;SDS011;42545;50.054;8.306;2023-05-07T09:36:23;2.47;;;2.10;;
56670;SDS011;42545;50.054;8.306;2023-05-07T09:38:50;3.35;;;2.47;;
56670;SDS011;42545;50.054;8.306;2023-05-07T09:41:19;2.58;;;2.25;;
56670;SDS011;42545;50.054;8.306;2023-05-07T09:43:46;3.38;;;2.88;;
56670;SDS011;42545;50.054;8.306;2023-05-07T09:46:19;3.28;;;2.72;;
56670;SDS011;42545;50.054;8.306;2023-05-07T09:48:53;2.10;;;1.90;;
56670;SDS011;42545;50.054;8.306;2023-05-07T09:51:24;2.58;;;2.38;;
56670;SDS011;42545;50.054;8.306;2023-05-07T09:53:56;2.50;;;2.28;;
56670;SDS011;42545;50.054;8.306;2023-05-07T09:56:26;4.82;;;2.67;;
56670;SDS011;42545;50.054;8.306;2023-05-07T09:58:56;2.80;;;2.20;;
56670;SDS011;42545;50.054;8.306;2023-05-07T10:01:27;3.03;;;2.53;;
56670;SDS011;42545;50.054;8.306;2023-05-07T10:03:54;2.83;;;2.22;;
56670;SDS011;42545;50.054;8.306;2023-05-07T10:06:22;2.42;;;2.00;;
56670;SDS011;42545;50.054;8.306;2023-05-07T10:08:52;2.38;;;2.17;;
56670;SDS011;42545;50.054;8.306;2023-05-07T10:11:19;2.88;;;2.50;;
56670;SDS011;42545;50.054;8.306;2023-05-07T10:13:50;2.72;;;2.45;;
56670;SDS011;42545;50.054;8.306;2023-05-07T10:16:18;2.42;;;2.22;;
56670;SDS011;42545;50.054;8.306;2023-05-07T10:18:46;2.38;;;2.10;;
56670;SDS011;42545;50.054;8.306;2023-05-07T10:21:15;3.25;;;2.88;;
56670;SDS011;42545;50.054;8.306;2023-05-07T10:23:44;3.35;;;2.90;;
56670;SDS011;42545;50.054;8.306;2023-05-07T10:26:12;2.47;;;2.10;;
56670;SDS011;42545;50.054;8.306;2023-05-07T10:28:42;2.47;;;2.28;;
56670;SDS011;42545;50.054;8.306;2023-05-07T10:31:21;2.53;;;2.33;;
56670;SDS011;42545;50.054;8.306;2023-05-07T10:34:02;2.40;;;2.20;;
56670;SDS011;42545;50.054;8.306;2023-05-07T10:36:34;3.15;;;2.35;;
56670;SDS011;42545;50.054;8.306;2023-05-07T10:39:02;3.22;;;2.65;;
56670;SDS011;42545;50.054;8.306;2023-05-07T10:41:29;3.67;;;2.25;;
56670;SDS011;42545;50.054;8.306;2023-05-07T10:43:56;2.10;;;1.90;;
56670;SDS011;42545;50.054;8.306;2023-05-07T10:46:27;3.22;;;2.72;;
56670;SDS011;42545;50.054;8.306;2023-05-07T10:49:07;3.58;;;2.55;;
56670;SDS011;42545;50.054;8.306;2023-05-07T10:51:37;3.22;;;2.83;;
56670;SDS011;42545;50.054;8.306;2023-05-07T10:54:18;2.20;;;2.00;;
56670;SDS011;42545;50.054;8.306;2023-05-07T10:56:45;3.83;;;2.90;;
56670;SDS011;42545;50.054;8.306;2023-05-07T11:02:08;2.35;;;2.15;;
56670;SDS011;42545;50.054;8.306;2023-05-07T11:04:36;3.50;;;2.92;;
56670;SDS011;42545;50.054;8.306;2023-05-07T11:07:21;2.80;;;2.50;;
56670;SDS011;42545;50.054;8.306;2023-05-07T11:09:55;2.35;;;2.10;;
56670;SDS011;42545;50.054;8.306;2023-05-07T11:15:33;2.65;;;2.20;;
56670;SDS011;42545;50.054;8.306;2023-05-07T11:18:03;3.03;;;2.40;;
56670;SDS011;42545;50.054;8.306;2023-05-07T11:20:46;4.53;;;3.08;;
56670;SDS011;42545;50.054;8.306;2023-05-07T11:26:22;2.10;;;2.00;;
56670;SDS011;42545;50.054;8.306;2023-05-07T11:28:50;2.05;;;1.92;;
56670;SDS011;42545;50.054;8.306;2023-05-07T11:31:20;2.35;;;2.00;;
56670;SDS011;42545;50.054;8.306;2023-05-07T11:33:50;2.50;;;2.30;;
56670;SDS011;42545;50.054;8.306;2023-05-07T11:36:17;2.75;;;2.45;;
56670;SDS011;42545;50.054;8.306;2023-05-07T11:38:45;2.50;;;2.30;;
56670;SDS011;42545;50.054;8.306;2023-05-07T11:41:12;3.65;;;3.00;;
56670;SDS011;42545;50.054;8.306;2023-05-07T11:43:39;3.28;;;2.80;;
56670;SDS011;42545;50.054;8.306;2023-05-07T11:46:20;3.58;;;3.00;;
56670;SDS011;42545;50.054;8.306;2023-05-07T11:48:47;3.47;;;2.38;;
56670;SDS011;42545;50.054;8.306;2023-05-07T11:51:15;2.47;;;2.05;;
56670;SDS011;42545;50.054;8.306;2023-05-07T11:53:48;4.07;;;2.97;;
56670;SDS011;42545;50.054;8.306;2023-05-07T11:56:16;3.67;;;3.13;;
56670;SDS011;42545;50.054;8.306;2023-05-07T11:58:44;3.92;;;2.88;;
56670;SDS011;42545;50.054;8.306;2023-05-07T12:01:14;4.43;;;3.05;;
56670;SDS011;42545;50.054;8.306;2023-05-07T12:03:41;8.02;;;3.05;;
56670;SDS011;42545;50.054;8.306;2023-05-07T12:06:10;3.08;;;2.78;;
56670;SDS011;42545;50.054;8.306;2023-05-07T12:08:39;3.22;;;2.92;;
56670;SDS011;42545;50.054;8.306;2023-05-07T12:11:07;4.82;;;3.17;;
56670;SDS011;42545;50.054;8.306;2023-05-07T12:13:36;2.65;;;2.45;;
56670;SDS011;42545;50.054;8.306;2023-05-07T12:16:03;2.63;;;2.30;;
56670;SDS011;42545;50.054;8.306;2023-05-07T12:18:31;4.40;;;2.65;;
56670;SDS011;42545;50.054;8.306;2023-05-07T12:20:59;3.42;;;2.85;;
56670;SDS011;42545;50.054;8.306;2023-05-07T12:23:26;2.55;;;2.20;;
56670;SDS011;42545;50.054;8.306;2023-05-07T12:25:54;3.08;;;2.17;;
56670;SDS011;42545;50.054;8.306;2023-05-07T12:28:20;2.45;;;2.25;;
56670;SDS011;42545;50.054;8.306;2023-05-07T12:30:48;2.72;;;2.53;;
56670;SDS011;42545;50.054;8.306;2023-05-07T12:33:16;1.90;;;1.80;;
56670;SDS011;42545;50.054;8.306;2023-05-07T12:35:43;2.60;;;2.40;;
56670;SDS011;42545;50.054;8.306;2023-05-07T12:38:10;3.50;;;3.10;;
56670;SDS011;42545;50.054;8.306;2023-05-07T12:40:39;5.30;;;3.10;;
56670;SDS011;42545;50.054;8.306;2023-05-07T12:43:09;3.63;;;2.50;;
56670;SDS011;42545;50.054;8.306;2023-05-07T12:45:42;2.97;;;2.60;;
56670;SDS011;42545;50.054;8.306;2023-05-07T12:48:10;2.50;;;2.20;;
56670;SDS011;42545;50.054;8.306;2023-05-07T12:50:38;4.55;;;2.53;;
56670;SDS011;42545;50.054;8.306;2023-05-07T12:53:08;2.50;;;2.20;;
56670;SDS011;42545;50.054;8.306;2023-05-07T12:55:40;3.92;;;2.55;;
56670;SDS011;42545;50.054;8.306;2023-05-07T12:58:09;2.42;;;2.17;;
56670;SDS011;42545;50.054;8.306;2023-05-07T13:00:44;2.63;;;1.90;;
56670;SDS011;42545;50.054;8.306;2023-05-07T13:03:21;4.03;;;2.33;;
56670;SDS011;42545;50.054;8.306;2023-05-07T13:05:49;2.03;;;1.85;;
56670;SDS011;42545;50.054;8.306;2023-05-07T13:08:23;3.00;;;2.58;;
56670;SDS011;42545;50.054;8.306;2023-05-07T13:10:51;2.00;;;1.80;;
56670;SDS011;42545;50.054;8.306;2023-05-07T13:13:20;3.08;;;2.60;;
56670;SDS011;42545;50.054;8.306;2023-05-07T13:15:46;2.75;;;2.25;;
56670;SDS011;42545;50.054;8.306;2023-05-07T13:18:13;2.40;;;2.10;;
56670;SDS011;42545;50.054;8.306;2023-05-07T13:20:40;2.20;;;1.77;;
56670;SDS011;42545;50.054;8.306;2023-05-07T13:23:08;2.03;;;1.80;;
56670;SDS011;42545;50.054;8.306;2023-05-07T13:25:34;1.60;;;1.42;;
56670;SDS011;42545;50.054;8.306;2023-05-07T13:28:01;2.67;;;1.95;;
56670;SDS011;42545;50.054;8.306;2023-05-07T13:30:30;2.03;;;1.83;;
56670;SDS011;42545;50.054;8.306;2023-05-07T13:32:57;2.45;;;1.80;;
56670;SDS011;42545;50.054;8.306;2023-05-07T13:35:23;1.90;;;1.80;;
56670;SDS011;42545;50.054;8.306;2023-05-07T13:37:50;2.15;;;1.95;;
56670;SDS011;42545;50.054;8.306;2023-05-07T13:40:17;1.70;;;1.60;;
56670;SDS011;42545;50.054;8.306;2023-05-07T13:42:44;2.10;;;1.90;;
56670;SDS011;42545;50.054;8.306;2023-05-07T13:45:11;2.70;;;1.80;;
56670;SDS011;42545;50.054;8.306;2023-05-07T13:47:41;2.60;;;1.80;;
56670;SDS011;42545;50.054;8.306;2023-05-07T13:50:08;3.83;;;1.80;;
56670;SDS011;42545;50.054;8.306;2023-05-07T13:52:38;2.13;;;1.85;;
56670;SDS011;42545;50.054;8.306;2023-05-07T13:55:06;1.83;;;1.70;;
56670;SDS011;42545;50.054;8.306;2023-05-07T13:57:33;2.83;;;1.75;;
56670;SDS011;42545;50.054;8.306;2023-05-07T14:00:00;2.20;;;1.75;;
56670;SDS011;42545;50.054;8.306;2023-05-07T14:02:27;3.17;;;1.70;;
56670;SDS011;42545;50.054;8.306;2023-05-07T14:04:55;1.75;;;1.60;;
56670;SDS011;42545;50.054;8.306;2023-05-07T14:07:21;3.58;;;1.80;;
56670;SDS011;42545;50.054;8.306;2023-05-07T14:09:48;2.63;;;1.70;;
56670;SDS011;42545;50.054;8.306;2023-05-07T14:12:15;2.50;;;1.80;;
56670;SDS011;42545;50.054;8.306;2023-05-07T14:14:43;2.22;;;2.03;;
56670;SDS011;42545;50.054;8.306;2023-05-07T14:17:11;2.47;;;1.80;;
56670;SDS011;42545;50.054;8.306;2023-05-07T14:19:38;2.17;;;1.80;;
56670;SDS011;42545;50.054;8.306;2023-05-07T14:22:06;2.28;;;1.80;;
56670;SDS011;42545;50.054;8.306;2023-05-07T14:24:33;2.15;;;1.80;;
56670;SDS011;42545;50.054;8.306;2023-05-07T14:27:00;2.70;;;2.20;;
56670;SDS011;42545;50.054;8.306;2023-05-07T14:29:27;2.30;;;2.10;;
56670;SDS011;42545;50.054;8.306;2023-05-07T14:31:53;2.00;;;1.80;;
56670;SDS011;42545;50.054;8.306;2023-05-07T14:34:20;1.70;;;1.60;;
56670;SDS011;42545;50.054;8.306;2023-05-07T14:36:47;2.25;;;1.73;;
56670;SDS011;42545;50.054;8.306;2023-05-07T14:39:15;2.40;;;1.92;;
56670;SDS011;42545;50.054;8.306;2023-05-07T14:41:41;1.80;;;1.70;;
56670;SDS011;42545;50.054;8.306;2023-05-07T14:44:08;2.00;;;1.80;;
56670;SDS011;42545;50.054;8.306;2023-05-07T14:46:34;1.60;;;1.50;;
56670;SDS011;42545;50.054;8.306;2023-05-07T14:49:01;2.10;;;1.85;;
56670;SDS011;42545;50.054;8.306;2023-05-07T14:51:29;2.40;;;1.90;;
56670;SDS011;42545;50.054;8.306;2023-05-07T14:53:56;2.45;;;1.80;;
56670;SDS011;42545;50.054;8.306;2023-05-07T14:56:24;1.67;;;1.58;;
56670;SDS011;42545;50.054;8.306;2023-05-07T14:58:50;1.95;;;1.60;;
56670;SDS011;42545;50.054;8.306;2023-05-07T15:01:17;1.73;;;1.60;;